Vectis Isle — 2GAS8 — position and weather

sailwx.info

Track history (hours):
 
Tides and Currents Weather Stations Pressure Air Temp Water Temp Dewpoint Dewpoint Depression Visibility Wind Speed Wind Dir Waves Ship Positions

Vectis Isle

Last reported at 2017-Oct-19 16:14 UTC. Time now 2017-Oct-19 16:56 UTC.
Position N 53°38' W 000°12'.

Length 124 m; draft 6 m.

Type: Cargo ship. MMSI: 235095836.

Date/timePositionNaut miles runAvg speedWind from/ knotsBaromVisibWave heightAir tempDewpointWater temp
2017-Oct-19 16:14N 53°38' W 000°12'0 0.0
2017-Oct-19 15:56N 53°38' W 000°12'0 0.0
2017-Oct-19 15:26N 53°38' W 000°12'0 0.0
2017-Oct-19 14:56N 53°38' W 000°12'0 0.0
2017-Oct-19 14:26N 53°38' W 000°12'0 0.0
2017-Oct-19 13:44N 53°38' W 000°12'0 0.0
2017-Oct-19 13:26N 53°38' W 000°12'0 0.0
2017-Oct-19 12:59N 53°38' W 000°12'0 0.0
2017-Oct-19 12:26N 53°38' W 000°12'0 0.0
2017-Oct-19 11:59N 53°38' W 000°12'0 0.0
2017-Oct-19 11:26N 53°38' W 000°12'0 0.0
2017-Oct-19 10:53N 53°38' W 000°12'0 0.0
2017-Oct-19 09:47N 53°38' W 000°12'0 0.0
2017-Oct-19 09:29N 53°38' W 000°12'0 0.0
2017-Oct-19 04:23N 53°38' W 000°12'0 0.0
2017-Oct-19 02:23N 53°38' W 000°12'0 0.0
2017-Oct-19 00:59N 53°38' W 000°12'0 0.0
2017-Oct-19 00:29N 53°38' W 000°12'0 0.0
2017-Oct-18 23:59N 53°38' W 000°12'0 0.0
2017-Oct-18 23:23N 53°38' W 000°12'0 0.0
2017-Oct-18 13:56N 53°38' W 000°12'0 0.0
2017-Oct-18 13:17N 53°38' W 000°12'0 0.0
2017-Oct-18 12:50N 53°38' W 000°12'0 0.0
2017-Oct-18 12:29N 53°38' W 000°12'0 0.6
2017-Oct-18 12:00N 53°38' W 000°11'0 0.3
2017-Oct-18 11:30N 53°38' W 000°11'1 1.8
2017-Oct-18 11:00N 53°38' W 000°10'2 3.4
2017-Oct-18 10:30N 53°38' W 000°07'2 3.2
2017-Oct-18 10:00N 53°37' W 000°05'4 7.7
2017-Oct-18 09:30N 53°35' E 000°01'266 8.5
2017-Oct-17 02:14N 54°11' E 007°29'312.1
2017-Oct-17 02:00N 54°08' E 007°31'612.2
2017-Oct-17 01:30N 54°03' E 007°36'1711.1
2017-Oct-16 23:57N 53°51' E 007°58'613.5
2017-Oct-16 23:30N 53°49' E 008°07'714.0
2017-Oct-16 23:00N 53°44' E 008°16'612.9
2017-Oct-16 22:30N 53°39' E 008°24'611.8
2017-Oct-16 22:00N 53°36' E 008°31'2 5.0
2017-Oct-16 21:30N 53°33' E 008°33'0 0.7
2017-Oct-16 21:00N 53°33' E 008°34'0 0.2
2017-Oct-16 20:30N 53°34' E 008°34'0 0.8
2017-Oct-16 20:00N 53°34' E 008°33'0 0.0
2017-Oct-16 19:28N 53°34' E 008°33'0 0.0
2017-Oct-16 18:58N 53°34' E 008°33'0 0.0
2017-Oct-16 18:28N 53°34' E 008°33'0 0.0
2017-Oct-16 17:58N 53°34' E 008°33'0 0.0
2017-Oct-16 17:28N 53°34' E 008°33'0 0.0
2017-Oct-16 16:58N 53°34' E 008°33'0 0.0
2017-Oct-16 16:28N 53°34' E 008°33'0 0.0
2017-Oct-16 15:58N 53°34' E 008°33'0 0.0
2017-Oct-16 15:28N 53°34' E 008°33'0 0.0
2017-Oct-16 14:58N 53°34' E 008°33'0 0.0
2017-Oct-16 14:28N 53°34' E 008°33'0 0.0
2017-Oct-16 13:28N 53°34' E 008°33'0 0.0
2017-Oct-16 12:58N 53°34' E 008°33'0 0.0
2017-Oct-16 12:28N 53°34' E 008°33'0 0.0
2017-Oct-16 11:58N 53°34' E 008°33'0 0.0
2017-Oct-16 11:28N 53°34' E 008°33'0 0.6
2017-Oct-16 10:58N 53°34' E 008°33'0 1.0
2017-Oct-16 10:29N 53°33' E 008°34'0 0.0
2017-Oct-16 09:59N 53°33' E 008°34'0 0.0
2017-Oct-16 09:29N 53°33' E 008°34'0 0.0
2017-Oct-16 08:59N 53°33' E 008°34'0 0.0
2017-Oct-16 08:29N 53°33' E 008°34'0 0.0
2017-Oct-16 07:59N 53°33' E 008°34'0 0.0
2017-Oct-16 07:29N 53°33' E 008°34'0 0.0
2017-Oct-16 06:59N 53°33' E 008°34'0 0.0
2017-Oct-16 06:29N 53°33' E 008°34'0 0.0
2017-Oct-16 05:59N 53°33' E 008°34'0 0.0
2017-Oct-16 05:29N 53°33' E 008°34'0 0.0
2017-Oct-16 04:59N 53°33' E 008°34'0 0.0
2017-Oct-16 04:29N 53°33' E 008°34'0 0.0
2017-Oct-16 03:59N 53°33' E 008°34'0 0.0
2017-Oct-16 03:29N 53°33' E 008°34'0 0.0
2017-Oct-16 02:59N 53°33' E 008°34'0 0.0
2017-Oct-16 02:29N 53°33' E 008°34'0 0.0
2017-Oct-16 01:59N 53°33' E 008°34'0 0.0
2017-Oct-16 01:29N 53°33' E 008°34'0 0.0
2017-Oct-16 00:59N 53°33' E 008°34'0 0.0
2017-Oct-16 00:29N 53°33' E 008°34'0 0.0
2017-Oct-15 23:59N 53°33' E 008°34'0 0.0
2017-Oct-15 23:29N 53°33' E 008°34'0 0.0
2017-Oct-15 22:59N 53°33' E 008°34'0 0.0
2017-Oct-15 22:29N 53°33' E 008°34'0 0.0
2017-Oct-15 21:59N 53°33' E 008°34'0 0.0
2017-Oct-15 21:29N 53°33' E 008°34'0 0.0
2017-Oct-15 20:59N 53°33' E 008°34'0 0.0
2017-Oct-15 20:29N 53°33' E 008°34'0 0.0
2017-Oct-15 19:59N 53°33' E 008°34'0 0.0
2017-Oct-15 19:29N 53°33' E 008°34'0 0.0
2017-Oct-15 18:59N 53°33' E 008°34'0 0.0
2017-Oct-15 18:29N 53°33' E 008°34'0 0.0
2017-Oct-15 17:59N 53°33' E 008°34'0 0.0
2017-Oct-15 17:29N 53°33' E 008°34'0 0.0
2017-Oct-15 16:59N 53°33' E 008°34'0 0.0
2017-Oct-15 16:29N 53°33' E 008°34'0 0.0
2017-Oct-15 15:59N 53°33' E 008°34'0 0.0
2017-Oct-15 15:29N 53°33' E 008°34'0 0.0
2017-Oct-15 14:59N 53°33' E 008°34'0 0.0
2017-Oct-15 13:59N 53°33' E 008°34'0 0.0
2017-Oct-15 13:29N 53°33' E 008°34'0 0.0
2017-Oct-15 12:59N 53°33' E 008°34'0 0.0
2017-Oct-15 12:29N 53°33' E 008°34'0 0.0
2017-Oct-15 11:59N 53°33' E 008°34'0 0.0
2017-Oct-15 11:29N 53°33' E 008°34'0 0.0
2017-Oct-15 10:59N 53°33' E 008°34'0 0.0
2017-Oct-15 10:29N 53°33' E 008°34'0 0.0
2017-Oct-15 09:59N 53°33' E 008°34'0 0.0
2017-Oct-15 09:29N 53°33' E 008°34'0 0.0
2017-Oct-15 08:59N 53°33' E 008°34'0 0.0
2017-Oct-15 08:29N 53°33' E 008°34'0 0.0
2017-Oct-15 07:59N 53°33' E 008°34'0 0.0
2017-Oct-15 07:29N 53°33' E 008°34'0 0.0
2017-Oct-15 06:59N 53°33' E 008°34'0 0.0
2017-Oct-15 06:29N 53°33' E 008°34'0 0.0
2017-Oct-15 05:59N 53°33' E 008°34'0 0.0
2017-Oct-15 05:29N 53°33' E 008°34'0 0.0
2017-Oct-15 04:59N 53°33' E 008°34'0 0.0
2017-Oct-15 04:29N 53°33' E 008°34'0 0.0
2017-Oct-15 03:59N 53°33' E 008°34'0 0.0
2017-Oct-15 03:29N 53°33' E 008°34'0 0.0
2017-Oct-15 02:59N 53°33' E 008°34'0 0.0
2017-Oct-15 02:29N 53°33' E 008°34'0 0.0
2017-Oct-15 01:59N 53°33' E 008°34'0 0.0
2017-Oct-15 01:29N 53°33' E 008°34'0 0.0
2017-Oct-15 00:59N 53°33' E 008°34'0 0.0
2017-Oct-15 00:29N 53°33' E 008°34'0 0.0
2017-Oct-14 23:59N 53°33' E 008°34'0 0.0
2017-Oct-14 23:29N 53°33' E 008°34'0 0.0
2017-Oct-14 22:59N 53°33' E 008°34'0 0.0
2017-Oct-14 22:29N 53°33' E 008°34'0 0.0
2017-Oct-14 21:59N 53°33' E 008°34'0 0.0
2017-Oct-14 21:29N 53°33' E 008°34'0 0.0
2017-Oct-14 20:59N 53°33' E 008°34'0 0.0
2017-Oct-14 20:29N 53°33' E 008°34'0 0.0
2017-Oct-14 19:59N 53°33' E 008°34'0 0.0
2017-Oct-14 19:29N 53°33' E 008°34'0 0.0
2017-Oct-14 18:59N 53°33' E 008°34'0 0.0
2017-Oct-14 18:29N 53°33' E 008°34'0 0.0
2017-Oct-14 17:59N 53°33' E 008°34'0 0.0
2017-Oct-14 17:29N 53°33' E 008°34'0 0.0
2017-Oct-14 16:59N 53°33' E 008°34'0 0.0
2017-Oct-14 16:29N 53°33' E 008°34'0 0.0
2017-Oct-14 15:59N 53°33' E 008°34'0 0.0
2017-Oct-14 15:29N 53°33' E 008°34'0 0.0
2017-Oct-14 14:59N 53°33' E 008°34'0 0.0
2017-Oct-14 14:29N 53°33' E 008°34'0 0.0
2017-Oct-14 13:59N 53°33' E 008°34'0 0.0
2017-Oct-14 13:29N 53°33' E 008°34'0 0.0
2017-Oct-14 12:59N 53°33' E 008°34'0 0.0
2017-Oct-14 12:29N 53°33' E 008°34'0 0.0
2017-Oct-14 11:59N 53°33' E 008°34'0 0.0
2017-Oct-14 11:29N 53°33' E 008°34'0 0.0
2017-Oct-14 10:59N 53°33' E 008°34'0 0.0
2017-Oct-14 10:29N 53°33' E 008°34'0 0.0
2017-Oct-14 09:59N 53°33' E 008°34'0 0.0
2017-Oct-14 09:29N 53°33' E 008°34'0 0.0
2017-Oct-14 08:59N 53°33' E 008°34'0 0.0
2017-Oct-14 08:29N 53°33' E 008°34'0 0.0
2017-Oct-14 07:59N 53°33' E 008°34'0 0.0
2017-Oct-14 07:29N 53°33' E 008°34'0 0.0
2017-Oct-14 06:59N 53°33' E 008°34'0 0.0
2017-Oct-14 06:29N 53°33' E 008°34'0 0.0
2017-Oct-14 05:59N 53°33' E 008°34'0 0.0
2017-Oct-14 05:29N 53°33' E 008°34'0 0.0
2017-Oct-14 04:59N 53°33' E 008°34'0 0.0
2017-Oct-14 04:29N 53°33' E 008°34'0 0.0
2017-Oct-14 03:59N 53°33' E 008°34'0 0.0
2017-Oct-14 03:29N 53°33' E 008°34'0 0.0
2017-Oct-14 02:59N 53°33' E 008°34'0 0.0
2017-Oct-14 02:29N 53°33' E 008°34'0 0.0
2017-Oct-14 01:59N 53°33' E 008°34'0 0.0
2017-Oct-14 01:29N 53°33' E 008°34'0 0.0
2017-Oct-14 00:59N 53°33' E 008°34'0 0.0
2017-Oct-14 00:29N 53°33' E 008°34'0 0.0
2017-Oct-13 23:59N 53°33' E 008°34'0 0.0
2017-Oct-13 23:29N 53°33' E 008°34'0 0.0
2017-Oct-13 22:59N 53°33' E 008°34'0 0.0
2017-Oct-13 22:29N 53°33' E 008°34'0 0.0
2017-Oct-13 21:59N 53°33' E 008°34'0 0.0
2017-Oct-13 21:29N 53°33' E 008°34'0 0.0
2017-Oct-13 20:59N 53°33' E 008°34'0 0.0
2017-Oct-13 20:29N 53°33' E 008°34'0 0.0
2017-Oct-13 19:59N 53°33' E 008°34'0 0.0
2017-Oct-13 19:29N 53°33' E 008°34'0 0.0
2017-Oct-13 18:59N 53°33' E 008°34'0 0.0
2017-Oct-13 18:29N 53°33' E 008°34'0 0.0
2017-Oct-13 17:59N 53°33' E 008°34'0 0.0
2017-Oct-13 17:29N 53°33' E 008°34'0 0.0
2017-Oct-13 16:59N 53°33' E 008°34'0 0.0
2017-Oct-13 16:29N 53°33' E 008°34'0 0.0
2017-Oct-13 15:59N 53°33' E 008°34'0 0.0
2017-Oct-13 15:29N 53°33' E 008°34'0 0.0
2017-Oct-13 14:59N 53°33' E 008°34'0 0.0
2017-Oct-13 14:29N 53°33' E 008°34'0 0.0
2017-Oct-13 13:59N 53°33' E 008°34'0 0.0
2017-Oct-13 13:29N 53°33' E 008°34'0 0.0
2017-Oct-13 12:59N 53°33' E 008°34'0 0.0
2017-Oct-13 12:29N 53°33' E 008°34'0 0.0
2017-Oct-13 11:59N 53°33' E 008°34'0 0.0
2017-Oct-13 11:29N 53°33' E 008°34'0 0.0
2017-Oct-13 10:59N 53°33' E 008°34'0 0.0
2017-Oct-13 10:29N 53°33' E 008°34'0 0.0
2017-Oct-13 09:59N 53°33' E 008°34'0 0.0
2017-Oct-13 09:29N 53°33' E 008°34'0 0.0
2017-Oct-13 08:59N 53°33' E 008°34'0 0.0
2017-Oct-13 08:29N 53°33' E 008°34'0 0.0
2017-Oct-13 07:59N 53°33' E 008°34'0 0.0
2017-Oct-13 07:29N 53°33' E 008°34'0 0.0
2017-Oct-13 06:59N 53°33' E 008°34'0 0.0
2017-Oct-13 06:29N 53°33' E 008°34'0 0.0
2017-Oct-13 05:59N 53°33' E 008°34'0 0.0
2017-Oct-13 05:29N 53°33' E 008°34'0 0.0
2017-Oct-13 04:59N 53°33' E 008°34'0 0.0
2017-Oct-13 04:29N 53°33' E 008°34'0 0.0
2017-Oct-13 03:59N 53°33' E 008°34'0 0.0
2017-Oct-13 03:29N 53°33' E 008°34'0 0.0
2017-Oct-13 02:59N 53°33' E 008°34'0 0.0
2017-Oct-13 02:29N 53°33' E 008°34'0 0.0
2017-Oct-13 01:59N 53°33' E 008°34'0 0.0
2017-Oct-13 01:29N 53°33' E 008°34'0 0.0
2017-Oct-13 00:59N 53°33' E 008°34'0 0.0
2017-Oct-13 00:29N 53°33' E 008°34'0 0.0
2017-Oct-12 23:59N 53°33' E 008°34'0 0.0
2017-Oct-12 23:29N 53°33' E 008°34'0 0.0
2017-Oct-12 22:59N 53°33' E 008°34'0 0.0
2017-Oct-12 22:29N 53°33' E 008°34'0 0.0
2017-Oct-12 21:59N 53°33' E 008°34'0 0.0
2017-Oct-12 21:29N 53°33' E 008°34'0 0.0
2017-Oct-12 20:59N 53°33' E 008°34'0 0.0
2017-Oct-12 20:29N 53°33' E 008°34'0 0.0
2017-Oct-12 19:59N 53°33' E 008°34'0 0.0
2017-Oct-12 19:29N 53°33' E 008°34'0 0.0
2017-Oct-12 18:59N 53°33' E 008°34'0 0.0
2017-Oct-12 18:29N 53°33' E 008°34'0 0.0
2017-Oct-12 17:59N 53°33' E 008°34'0 0.0
2017-Oct-12 17:29N 53°33' E 008°34'0 0.0
2017-Oct-12 16:59N 53°33' E 008°34'0 0.0
2017-Oct-12 16:29N 53°33' E 008°34'0 0.0
2017-Oct-12 15:59N 53°33' E 008°34'0 0.0
2017-Oct-12 15:29N 53°33' E 008°34'0 0.0
2017-Oct-12 14:59N 53°33' E 008°34'0 0.0
2017-Oct-12 14:29N 53°33' E 008°34'0 0.0
2017-Oct-12 13:59N 53°33' E 008°34'0 0.0
2017-Oct-12 13:29N 53°33' E 008°34'0 0.0
2017-Oct-12 12:59N 53°33' E 008°34'0 0.0
2017-Oct-12 12:29N 53°33' E 008°34'0 0.0
2017-Oct-12 11:59N 53°33' E 008°34'0 0.0
2017-Oct-12 11:29N 53°33' E 008°34'0 0.0
2017-Oct-12 10:59N 53°33' E 008°34'0 0.0
2017-Oct-12 10:29N 53°33' E 008°34'0 0.0
2017-Oct-12 09:59N 53°33' E 008°34'0 0.0
2017-Oct-12 09:29N 53°33' E 008°34'0 0.0
2017-Oct-12 08:59N 53°33' E 008°34'0 0.0
2017-Oct-12 08:29N 53°33' E 008°34'0 0.0
2017-Oct-12 07:59N 53°33' E 008°34'0 0.0
2017-Oct-12 07:29N 53°33' E 008°34'0 0.0
2017-Oct-12 06:59N 53°33' E 008°34'0 0.0
2017-Oct-12 06:29N 53°33' E 008°34'0 0.0
2017-Oct-12 05:59N 53°33' E 008°34'0 0.0
2017-Oct-12 05:29N 53°33' E 008°34'0 0.0
2017-Oct-12 04:59N 53°33' E 008°34'0 0.0
2017-Oct-12 04:29N 53°33' E 008°34'0 0.0
2017-Oct-12 03:59N 53°33' E 008°34'0 0.0
2017-Oct-12 03:29N 53°33' E 008°34'0 0.0
2017-Oct-12 02:59N 53°33' E 008°34'0 0.0
2017-Oct-12 02:29N 53°33' E 008°34'0 0.0
2017-Oct-12 01:59N 53°33' E 008°34'0 0.0
2017-Oct-12 01:29N 53°33' E 008°34'0 0.0
2017-Oct-12 00:59N 53°33' E 008°34'0 0.0
2017-Oct-12 00:29N 53°33' E 008°34'0 0.0
2017-Oct-11 23:59N 53°33' E 008°34'0 0.0
2017-Oct-11 23:29N 53°33' E 008°34'0 0.0
2017-Oct-11 22:59N 53°33' E 008°34'0 0.0
2017-Oct-11 22:29N 53°33' E 008°34'0 0.0
2017-Oct-11 21:59N 53°33' E 008°34'0 0.0
2017-Oct-11 21:29N 53°33' E 008°34'0 0.0
2017-Oct-11 20:59N 53°33' E 008°34'0 0.0
2017-Oct-11 20:29N 53°33' E 008°34'0 0.0
2017-Oct-11 19:59N 53°33' E 008°34'0 0.0
2017-Oct-11 19:29N 53°33' E 008°34'0 0.0
2017-Oct-11 18:59N 53°33' E 008°34'0 0.0
2017-Oct-11 18:29N 53°33' E 008°34'0 0.0
2017-Oct-11 17:59N 53°33' E 008°34'0 0.0
2017-Oct-11 17:29N 53°33' E 008°34'0 0.0
2017-Oct-11 16:59N 53°33' E 008°34'0 0.0
2017-Oct-10 23:59N 53°33' E 008°34'0 0.0
2017-Oct-10 23:29N 53°33' E 008°34'0 0.0
2017-Oct-10 22:59N 53°33' E 008°34'0 0.0
2017-Oct-10 22:29N 53°33' E 008°34'0 0.0
2017-Oct-10 21:59N 53°33' E 008°34'0 0.0
2017-Oct-10 21:29N 53°33' E 008°34'0 0.0
2017-Oct-10 20:59N 53°33' E 008°34'0 0.0
2017-Oct-10 20:29N 53°33' E 008°34'0 0.0
2017-Oct-10 19:59N 53°33' E 008°34'0 0.0
2017-Oct-10 19:29N 53°33' E 008°34'0 0.0
2017-Oct-10 18:59N 53°33' E 008°34'0 0.0
2017-Oct-10 18:29N 53°33' E 008°34'0 0.0
2017-Oct-10 17:59N 53°33' E 008°34'0 0.0
2017-Oct-10 17:29N 53°33' E 008°34'0 0.0
2017-Oct-10 16:59N 53°33' E 008°34'0 0.0
2017-Oct-10 16:29N 53°33' E 008°34'0 0.0
2017-Oct-10 15:59N 53°33' E 008°34'0 0.0
2017-Oct-10 15:29N 53°33' E 008°34'0 0.0
2017-Oct-10 14:59N 53°33' E 008°34'0 0.0
2017-Oct-10 13:59N 53°33' E 008°34'0 0.0
2017-Oct-10 13:29N 53°33' E 008°34'0 0.0
2017-Oct-10 12:59N 53°33' E 008°34'0 0.0
2017-Oct-10 12:29N 53°33' E 008°34'0 0.0
2017-Oct-10 11:59N 53°33' E 008°34'0 0.0
2017-Oct-10 11:29N 53°33' E 008°34'0 0.0
2017-Oct-10 10:59N 53°33' E 008°34'0 0.0
2017-Oct-10 10:29N 53°33' E 008°34'0 0.0
2017-Oct-10 09:59N 53°33' E 008°34'0 0.0
2017-Oct-10 09:29N 53°33' E 008°34'0 0.0
2017-Oct-10 08:59N 53°33' E 008°34'0 0.0
2017-Oct-10 08:29N 53°33' E 008°34'0 0.0
2017-Oct-10 07:59N 53°33' E 008°34'0 0.0
2017-Oct-10 07:29N 53°33' E 008°34'0 0.0
2017-Oct-10 06:59N 53°33' E 008°34'0 0.0
2017-Oct-10 06:29N 53°33' E 008°34'0 0.0
2017-Oct-10 05:56N 53°33' E 008°34'0 0.0
2017-Oct-10 05:29N 53°33' E 008°34'0 0.0
2017-Oct-10 04:59N 53°33' E 008°34'0 0.0
2017-Oct-10 04:29N 53°33' E 008°34'0 0.0
2017-Oct-10 03:59N 53°33' E 008°34'0 0.0
2017-Oct-10 03:29N 53°33' E 008°34'0 0.0
2017-Oct-10 02:59N 53°33' E 008°34'0 0.0
2017-Oct-10 02:29N 53°33' E 008°34'0 0.0
2017-Oct-10 01:59N 53°33' E 008°34'0 0.0
2017-Oct-10 01:29N 53°33' E 008°34'0 0.0
2017-Oct-10 00:59N 53°33' E 008°34'0 0.0
2017-Oct-10 00:29N 53°33' E 008°34'0 0.0
2017-Oct-09 23:59N 53°33' E 008°34'0 0.0
2017-Oct-09 23:29N 53°33' E 008°34'0 0.0
2017-Oct-09 22:59N 53°33' E 008°34'0 0.0
2017-Oct-09 22:29N 53°33' E 008°34'0 0.0
2017-Oct-09 21:59N 53°33' E 008°34'0 0.0
2017-Oct-09 21:29N 53°33' E 008°34'0 0.0
2017-Oct-09 20:59N 53°33' E 008°34'0 0.0
2017-Oct-09 20:29N 53°33' E 008°34'0 0.0
2017-Oct-09 19:59N 53°33' E 008°34'0 0.0
2017-Oct-09 19:29N 53°33' E 008°34'0 0.0
2017-Oct-09 18:59N 53°33' E 008°34'0 0.0
2017-Oct-09 18:29N 53°33' E 008°34'0 0.0
2017-Oct-09 17:59N 53°33' E 008°34'0 0.0
2017-Oct-09 17:29N 53°33' E 008°34'0 0.0
2017-Oct-09 16:59N 53°33' E 008°34'0 0.0
2017-Oct-09 16:29N 53°33' E 008°34'  
Track history (hours):
 
Tides and Currents Weather Stations Pressure Air Temp Water Temp Dewpoint Dewpoint Depression Visibility Wind Speed Wind Dir Waves Ship Positions

Vectis Isle

Last reported at 2017-Oct-19 16:14 UTC. Time now 2017-Oct-19 16:56 UTC.
Position N 53°38' W 000°12'.

Length 124 m; draft 6 m.

Type: Cargo ship. MMSI: 235095836.

Date/timePositionNaut miles runAvg speedWind from/ knotsBaromVisibWave heightAir tempDewpointWater temp
2017-Oct-19 16:14N 53°38' W 000°12'0 0.0
2017-Oct-19 15:56N 53°38' W 000°12'0 0.0
2017-Oct-19 15:26N 53°38' W 000°12'0 0.0
2017-Oct-19 14:56N 53°38' W 000°12'0 0.0
2017-Oct-19 14:26N 53°38' W 000°12'0 0.0
2017-Oct-19 13:44N 53°38' W 000°12'0 0.0
2017-Oct-19 13:26N 53°38' W 000°12'0 0.0
2017-Oct-19 12:59N 53°38' W 000°12'0 0.0
2017-Oct-19 12:26N 53°38' W 000°12'0 0.0
2017-Oct-19 11:59N 53°38' W 000°12'0 0.0
2017-Oct-19 11:26N 53°38' W 000°12'0 0.0
2017-Oct-19 10:53N 53°38' W 000°12'0 0.0
2017-Oct-19 09:47N 53°38' W 000°12'0 0.0
2017-Oct-19 09:29N 53°38' W 000°12'0 0.0
2017-Oct-19 04:23N 53°38' W 000°12'0 0.0
2017-Oct-19 02:23N 53°38' W 000°12'0 0.0
2017-Oct-19 00:59N 53°38' W 000°12'0 0.0
2017-Oct-19 00:29N 53°38' W 000°12'0 0.0
2017-Oct-18 23:59N 53°38' W 000°12'0 0.0
2017-Oct-18 23:23N 53°38' W 000°12'0 0.0
2017-Oct-18 13:56N 53°38' W 000°12'0 0.0
2017-Oct-18 13:17N 53°38' W 000°12'0 0.0
2017-Oct-18 12:50N 53°38' W 000°12'0 0.0
2017-Oct-18 12:29N 53°38' W 000°12'0 0.6
2017-Oct-18 12:00N 53°38' W 000°11'0 0.3
2017-Oct-18 11:30N 53°38' W 000°11'1 1.8
2017-Oct-18 11:00N 53°38' W 000°10'2 3.4
2017-Oct-18 10:30N 53°38' W 000°07'2 3.2
2017-Oct-18 10:00N 53°37' W 000°05'4 7.7
2017-Oct-18 09:30N 53°35' E 000°01'266 8.5
2017-Oct-17 02:14N 54°11' E 007°29'312.1
2017-Oct-17 02:00N 54°08' E 007°31'612.2
2017-Oct-17 01:30N 54°03' E 007°36'1711.1
2017-Oct-16 23:57N 53°51' E 007°58'613.5
2017-Oct-16 23:30N 53°49' E 008°07'714.0
2017-Oct-16 23:00N 53°44' E 008°16'612.9
2017-Oct-16 22:30N 53°39' E 008°24'611.8
2017-Oct-16 22:00N 53°36' E 008°31'2 5.0
2017-Oct-16 21:30N 53°33' E 008°33'0 0.7
2017-Oct-16 21:00N 53°33' E 008°34'0 0.2
2017-Oct-16 20:30N 53°34' E 008°34'0 0.8
2017-Oct-16 20:00N 53°34' E 008°33'0 0.0
2017-Oct-16 19:28N 53°34' E 008°33'0 0.0
2017-Oct-16 18:58N 53°34' E 008°33'0 0.0
2017-Oct-16 18:28N 53°34' E 008°33'0 0.0
2017-Oct-16 17:58N 53°34' E 008°33'0 0.0
2017-Oct-16 17:28N 53°34' E 008°33'0 0.0
2017-Oct-16 16:58N 53°34' E 008°33'0 0.0
2017-Oct-16 16:28N 53°34' E 008°33'0 0.0
2017-Oct-16 15:58N 53°34' E 008°33'0 0.0
2017-Oct-16 15:28N 53°34' E 008°33'0 0.0
2017-Oct-16 14:58N 53°34' E 008°33'0 0.0
2017-Oct-16 14:28N 53°34' E 008°33'0 0.0
2017-Oct-16 13:28N 53°34' E 008°33'0 0.0
2017-Oct-16 12:58N 53°34' E 008°33'0 0.0
2017-Oct-16 12:28N 53°34' E 008°33'0 0.0
2017-Oct-16 11:58N 53°34' E 008°33'0 0.0
2017-Oct-16 11:28N 53°34' E 008°33'0 0.6
2017-Oct-16 10:58N 53°34' E 008°33'0 1.0
2017-Oct-16 10:29N 53°33' E 008°34'0 0.0
2017-Oct-16 09:59N 53°33' E 008°34'0 0.0
2017-Oct-16 09:29N 53°33' E 008°34'0 0.0
2017-Oct-16 08:59N 53°33' E 008°34'0 0.0
2017-Oct-16 08:29N 53°33' E 008°34'0 0.0
2017-Oct-16 07:59N 53°33' E 008°34'0 0.0
2017-Oct-16 07:29N 53°33' E 008°34'0 0.0
2017-Oct-16 06:59N 53°33' E 008°34'0 0.0
2017-Oct-16 06:29N 53°33' E 008°34'0 0.0
2017-Oct-16 05:59N 53°33' E 008°34'0 0.0
2017-Oct-16 05:29N 53°33' E 008°34'0 0.0
2017-Oct-16 04:59N 53°33' E 008°34'0 0.0
2017-Oct-16 04:29N 53°33' E 008°34'0 0.0
2017-Oct-16 03:59N 53°33' E 008°34'0 0.0
2017-Oct-16 03:29N 53°33' E 008°34'0 0.0
2017-Oct-16 02:59N 53°33' E 008°34'0 0.0
2017-Oct-16 02:29N 53°33' E 008°34'0 0.0
2017-Oct-16 01:59N 53°33' E 008°34'0 0.0
2017-Oct-16 01:29N 53°33' E 008°34'0 0.0
2017-Oct-16 00:59N 53°33' E 008°34'0 0.0
2017-Oct-16 00:29N 53°33' E 008°34'0 0.0
2017-Oct-15 23:59N 53°33' E 008°34'0 0.0
2017-Oct-15 23:29N 53°33' E 008°34'0 0.0
2017-Oct-15 22:59N 53°33' E 008°34'0 0.0
2017-Oct-15 22:29N 53°33' E 008°34'0 0.0
2017-Oct-15 21:59N 53°33' E 008°34'0 0.0
2017-Oct-15 21:29N 53°33' E 008°34'0 0.0
2017-Oct-15 20:59N 53°33' E 008°34'0 0.0
2017-Oct-15 20:29N 53°33' E 008°34'0 0.0
2017-Oct-15 19:59N 53°33' E 008°34'0 0.0
2017-Oct-15 19:29N 53°33' E 008°34'0 0.0
2017-Oct-15 18:59N 53°33' E 008°34'0 0.0
2017-Oct-15 18:29N 53°33' E 008°34'0 0.0
2017-Oct-15 17:59N 53°33' E 008°34'0 0.0
2017-Oct-15 17:29N 53°33' E 008°34'0 0.0
2017-Oct-15 16:59N 53°33' E 008°34'0 0.0
2017-Oct-15 16:29N 53°33' E 008°34'0 0.0
2017-Oct-15 15:59N 53°33' E 008°34'0 0.0
2017-Oct-15 15:29N 53°33' E 008°34'0 0.0
2017-Oct-15 14:59N 53°33' E 008°34'0 0.0
2017-Oct-15 13:59N 53°33' E 008°34'0 0.0
2017-Oct-15 13:29N 53°33' E 008°34'0 0.0
2017-Oct-15 12:59N 53°33' E 008°34'0 0.0
2017-Oct-15 12:29N 53°33' E 008°34'0 0.0
2017-Oct-15 11:59N 53°33' E 008°34'0 0.0
2017-Oct-15 11:29N 53°33' E 008°34'0 0.0
2017-Oct-15 10:59N 53°33' E 008°34'0 0.0
2017-Oct-15 10:29N 53°33' E 008°34'0 0.0
2017-Oct-15 09:59N 53°33' E 008°34'0 0.0
2017-Oct-15 09:29N 53°33' E 008°34'0 0.0
2017-Oct-15 08:59N 53°33' E 008°34'0 0.0
2017-Oct-15 08:29N 53°33' E 008°34'0 0.0
2017-Oct-15 07:59N 53°33' E 008°34'0 0.0
2017-Oct-15 07:29N 53°33' E 008°34'0 0.0
2017-Oct-15 06:59N 53°33' E 008°34'0 0.0
2017-Oct-15 06:29N 53°33' E 008°34'0 0.0
2017-Oct-15 05:59N 53°33' E 008°34'0 0.0
2017-Oct-15 05:29N 53°33' E 008°34'0 0.0
2017-Oct-15 04:59N 53°33' E 008°34'0 0.0
2017-Oct-15 04:29N 53°33' E 008°34'0 0.0
2017-Oct-15 03:59N 53°33' E 008°34'0 0.0
2017-Oct-15 03:29N 53°33' E 008°34'0 0.0
2017-Oct-15 02:59N 53°33' E 008°34'0 0.0
2017-Oct-15 02:29N 53°33' E 008°34'0 0.0
2017-Oct-15 01:59N 53°33' E 008°34'0 0.0
2017-Oct-15 01:29N 53°33' E 008°34'0 0.0
2017-Oct-15 00:59N 53°33' E 008°34'0 0.0
2017-Oct-15 00:29N 53°33' E 008°34'0 0.0
2017-Oct-14 23:59N 53°33' E 008°34'0 0.0
2017-Oct-14 23:29N 53°33' E 008°34'0 0.0
2017-Oct-14 22:59N 53°33' E 008°34'0 0.0
2017-Oct-14 22:29N 53°33' E 008°34'0 0.0
2017-Oct-14 21:59N 53°33' E 008°34'0 0.0
2017-Oct-14 21:29N 53°33' E 008°34'0 0.0
2017-Oct-14 20:59N 53°33' E 008°34'0 0.0
2017-Oct-14 20:29N 53°33' E 008°34'0 0.0
2017-Oct-14 19:59N 53°33' E 008°34'0 0.0
2017-Oct-14 19:29N 53°33' E 008°34'0 0.0
2017-Oct-14 18:59N 53°33' E 008°34'0 0.0
2017-Oct-14 18:29N 53°33' E 008°34'0 0.0
2017-Oct-14 17:59N 53°33' E 008°34'0 0.0
2017-Oct-14 17:29N 53°33' E 008°34'0 0.0
2017-Oct-14 16:59N 53°33' E 008°34'0 0.0
2017-Oct-14 16:29N 53°33' E 008°34'0 0.0
2017-Oct-14 15:59N 53°33' E 008°34'0 0.0
2017-Oct-14 15:29N 53°33' E 008°34'0 0.0
2017-Oct-14 14:59N 53°33' E 008°34'0 0.0
2017-Oct-14 14:29N 53°33' E 008°34'0 0.0
2017-Oct-14 13:59N 53°33' E 008°34'0 0.0
2017-Oct-14 13:29N 53°33' E 008°34'0 0.0
2017-Oct-14 12:59N 53°33' E 008°34'0 0.0
2017-Oct-14 12:29N 53°33' E 008°34'0 0.0
2017-Oct-14 11:59N 53°33' E 008°34'0 0.0
2017-Oct-14 11:29N 53°33' E 008°34'0 0.0
2017-Oct-14 10:59N 53°33' E 008°34'0 0.0
2017-Oct-14 10:29N 53°33' E 008°34'0 0.0
2017-Oct-14 09:59N 53°33' E 008°34'0 0.0
2017-Oct-14 09:29N 53°33' E 008°34'0 0.0
2017-Oct-14 08:59N 53°33' E 008°34'0 0.0
2017-Oct-14 08:29N 53°33' E 008°34'0 0.0
2017-Oct-14 07:59N 53°33' E 008°34'0 0.0
2017-Oct-14 07:29N 53°33' E 008°34'0 0.0
2017-Oct-14 06:59N 53°33' E 008°34'0 0.0
2017-Oct-14 06:29N 53°33' E 008°34'0 0.0
2017-Oct-14 05:59N 53°33' E 008°34'0 0.0
2017-Oct-14 05:29N 53°33' E 008°34'0 0.0
2017-Oct-14 04:59N 53°33' E 008°34'0 0.0
2017-Oct-14 04:29N 53°33' E 008°34'0 0.0
2017-Oct-14 03:59N 53°33' E 008°34'0 0.0
2017-Oct-14 03:29N 53°33' E 008°34'0 0.0
2017-Oct-14 02:59N 53°33' E 008°34'0 0.0
2017-Oct-14 02:29N 53°33' E 008°34'0 0.0
2017-Oct-14 01:59N 53°33' E 008°34'0 0.0
2017-Oct-14 01:29N 53°33' E 008°34'0 0.0
2017-Oct-14 00:59N 53°33' E 008°34'0 0.0
2017-Oct-14 00:29N 53°33' E 008°34'0 0.0
2017-Oct-13 23:59N 53°33' E 008°34'0 0.0
2017-Oct-13 23:29N 53°33' E 008°34'0 0.0
2017-Oct-13 22:59N 53°33' E 008°34'0 0.0
2017-Oct-13 22:29N 53°33' E 008°34'0 0.0
2017-Oct-13 21:59N 53°33' E 008°34'0 0.0
2017-Oct-13 21:29N 53°33' E 008°34'0 0.0
2017-Oct-13 20:59N 53°33' E 008°34'0 0.0
2017-Oct-13 20:29N 53°33' E 008°34'0 0.0
2017-Oct-13 19:59N 53°33' E 008°34'0 0.0
2017-Oct-13 19:29N 53°33' E 008°34'0 0.0
2017-Oct-13 18:59N 53°33' E 008°34'0 0.0
2017-Oct-13 18:29N 53°33' E 008°34'0 0.0
2017-Oct-13 17:59N 53°33' E 008°34'0 0.0
2017-Oct-13 17:29N 53°33' E 008°34'0 0.0
2017-Oct-13 16:59N 53°33' E 008°34'0 0.0
2017-Oct-13 16:29N 53°33' E 008°34'0 0.0
2017-Oct-13 15:59N 53°33' E 008°34'0 0.0
2017-Oct-13 15:29N 53°33' E 008°34'0 0.0
2017-Oct-13 14:59N 53°33' E 008°34'0 0.0
2017-Oct-13 14:29N 53°33' E 008°34'0 0.0
2017-Oct-13 13:59N 53°33' E 008°34'0 0.0
2017-Oct-13 13:29N 53°33' E 008°34'0 0.0
2017-Oct-13 12:59N 53°33' E 008°34'0 0.0
2017-Oct-13 12:29N 53°33' E 008°34'0 0.0
2017-Oct-13 11:59N 53°33' E 008°34'0 0.0
2017-Oct-13 11:29N 53°33' E 008°34'0 0.0
2017-Oct-13 10:59N 53°33' E 008°34'0 0.0
2017-Oct-13 10:29N 53°33' E 008°34'0 0.0
2017-Oct-13 09:59N 53°33' E 008°34'0 0.0
2017-Oct-13 09:29N 53°33' E 008°34'0 0.0
2017-Oct-13 08:59N 53°33' E 008°34'0 0.0
2017-Oct-13 08:29N 53°33' E 008°34'0 0.0
2017-Oct-13 07:59N 53°33' E 008°34'0 0.0
2017-Oct-13 07:29N 53°33' E 008°34'0 0.0
2017-Oct-13 06:59N 53°33' E 008°34'0 0.0
2017-Oct-13 06:29N 53°33' E 008°34'0 0.0
2017-Oct-13 05:59N 53°33' E 008°34'0 0.0
2017-Oct-13 05:29N 53°33' E 008°34'0 0.0
2017-Oct-13 04:59N 53°33' E 008°34'0 0.0
2017-Oct-13 04:29N 53°33' E 008°34'0 0.0
2017-Oct-13 03:59N 53°33' E 008°34'0 0.0
2017-Oct-13 03:29N 53°33' E 008°34'0 0.0
2017-Oct-13 02:59N 53°33' E 008°34'0 0.0
2017-Oct-13 02:29N 53°33' E 008°34'0 0.0
2017-Oct-13 01:59N 53°33' E 008°34'0 0.0
2017-Oct-13 01:29N 53°33' E 008°34'0 0.0
2017-Oct-13 00:59N 53°33' E 008°34'0 0.0
2017-Oct-13 00:29N 53°33' E 008°34'0 0.0
2017-Oct-12 23:59N 53°33' E 008°34'0 0.0
2017-Oct-12 23:29N 53°33' E 008°34'0 0.0
2017-Oct-12 22:59N 53°33' E 008°34'0 0.0
2017-Oct-12 22:29N 53°33' E 008°34'0 0.0
2017-Oct-12 21:59N 53°33' E 008°34'0 0.0
2017-Oct-12 21:29N 53°33' E 008°34'0 0.0
2017-Oct-12 20:59N 53°33' E 008°34'0 0.0
2017-Oct-12 20:29N 53°33' E 008°34'0 0.0
2017-Oct-12 19:59N 53°33' E 008°34'0 0.0
2017-Oct-12 19:29N 53°33' E 008°34'0 0.0
2017-Oct-12 18:59N 53°33' E 008°34'0 0.0
2017-Oct-12 18:29N 53°33' E 008°34'0 0.0
2017-Oct-12 17:59N 53°33' E 008°34'0 0.0
2017-Oct-12 17:29N 53°33' E 008°34'0 0.0
2017-Oct-12 16:59N 53°33' E 008°34'0 0.0
2017-Oct-12 16:29N 53°33' E 008°34'0 0.0
2017-Oct-12 15:59N 53°33' E 008°34'0 0.0
2017-Oct-12 15:29N 53°33' E 008°34'0 0.0
2017-Oct-12 14:59N 53°33' E 008°34'0 0.0
2017-Oct-12 14:29N 53°33' E 008°34'0 0.0
2017-Oct-12 13:59N 53°33' E 008°34'0 0.0
2017-Oct-12 13:29N 53°33' E 008°34'0 0.0
2017-Oct-12 12:59N 53°33' E 008°34'0 0.0
2017-Oct-12 12:29N 53°33' E 008°34'0 0.0
2017-Oct-12 11:59N 53°33' E 008°34'0 0.0
2017-Oct-12 11:29N 53°33' E 008°34'0 0.0
2017-Oct-12 10:59N 53°33' E 008°34'0 0.0
2017-Oct-12 10:29N 53°33' E 008°34'0 0.0
2017-Oct-12 09:59N 53°33' E 008°34'0 0.0
2017-Oct-12 09:29N 53°33' E 008°34'0 0.0
2017-Oct-12 08:59N 53°33' E 008°34'0 0.0
2017-Oct-12 08:29N 53°33' E 008°34'0 0.0
2017-Oct-12 07:59N 53°33' E 008°34'0 0.0
2017-Oct-12 07:29N 53°33' E 008°34'0 0.0
2017-Oct-12 06:59N 53°33' E 008°34'0 0.0
2017-Oct-12 06:29N 53°33' E 008°34'0 0.0
2017-Oct-12 05:59N 53°33' E 008°34'0 0.0
2017-Oct-12 05:29N 53°33' E 008°34'0 0.0
2017-Oct-12 04:59N 53°33' E 008°34'0 0.0
2017-Oct-12 04:29N 53°33' E 008°34'0 0.0
2017-Oct-12 03:59N 53°33' E 008°34'0 0.0
2017-Oct-12 03:29N 53°33' E 008°34'0 0.0
2017-Oct-12 02:59N 53°33' E 008°34'0 0.0
2017-Oct-12 02:29N 53°33' E 008°34'0 0.0
2017-Oct-12 01:59N 53°33' E 008°34'0 0.0
2017-Oct-12 01:29N 53°33' E 008°34'0 0.0
2017-Oct-12 00:59N 53°33' E 008°34'0 0.0
2017-Oct-12 00:29N 53°33' E 008°34'0 0.0
2017-Oct-11 23:59N 53°33' E 008°34'0 0.0
2017-Oct-11 23:29N 53°33' E 008°34'0 0.0
2017-Oct-11 22:59N 53°33' E 008°34'0 0.0
2017-Oct-11 22:29N 53°33' E 008°34'0 0.0
2017-Oct-11 21:59N 53°33' E 008°34'0 0.0
2017-Oct-11 21:29N 53°33' E 008°34'0 0.0
2017-Oct-11 20:59N 53°33' E 008°34'0 0.0
2017-Oct-11 20:29N 53°33' E 008°34'0 0.0
2017-Oct-11 19:59N 53°33' E 008°34'0 0.0
2017-Oct-11 19:29N 53°33' E 008°34'0 0.0
2017-Oct-11 18:59N 53°33' E 008°34'0 0.0
2017-Oct-11 18:29N 53°33' E 008°34'0 0.0
2017-Oct-11 17:59N 53°33' E 008°34'0 0.0
2017-Oct-11 17:29N 53°33' E 008°34'0 0.0
2017-Oct-11 16:59N 53°33' E 008°34'0 0.0
2017-Oct-10 23:59N 53°33' E 008°34'0 0.0
2017-Oct-10 23:29N 53°33' E 008°34'0 0.0
2017-Oct-10 22:59N 53°33' E 008°34'0 0.0
2017-Oct-10 22:29N 53°33' E 008°34'0 0.0
2017-Oct-10 21:59N 53°33' E 008°34'0 0.0
2017-Oct-10 21:29N 53°33' E 008°34'0 0.0
2017-Oct-10 20:59N 53°33' E 008°34'0 0.0
2017-Oct-10 20:29N 53°33' E 008°34'0 0.0
2017-Oct-10 19:59N 53°33' E 008°34'0 0.0
2017-Oct-10 19:29N 53°33' E 008°34'0 0.0
2017-Oct-10 18:59N 53°33' E 008°34'0 0.0
2017-Oct-10 18:29N 53°33' E 008°34'0 0.0
2017-Oct-10 17:59N 53°33' E 008°34'0 0.0
2017-Oct-10 17:29N 53°33' E 008°34'0 0.0
2017-Oct-10 16:59N 53°33' E 008°34'0 0.0
2017-Oct-10 16:29N 53°33' E 008°34'0 0.0
2017-Oct-10 15:59N 53°33' E 008°34'0 0.0
2017-Oct-10 15:29N 53°33' E 008°34'0 0.0
2017-Oct-10 14:59N 53°33' E 008°34'0 0.0
2017-Oct-10 13:59N 53°33' E 008°34'0 0.0
2017-Oct-10 13:29N 53°33' E 008°34'0 0.0
2017-Oct-10 12:59N 53°33' E 008°34'0 0.0
2017-Oct-10 12:29N 53°33' E 008°34'0 0.0
2017-Oct-10 11:59N 53°33' E 008°34'0 0.0
2017-Oct-10 11:29N 53°33' E 008°34'0 0.0
2017-Oct-10 10:59N 53°33' E 008°34'0 0.0
2017-Oct-10 10:29N 53°33' E 008°34'0 0.0
2017-Oct-10 09:59N 53°33' E 008°34'0 0.0
2017-Oct-10 09:29N 53°33' E 008°34'0 0.0
2017-Oct-10 08:59N 53°33' E 008°34'0 0.0
2017-Oct-10 08:29N 53°33' E 008°34'0 0.0
2017-Oct-10 07:59N 53°33' E 008°34'0 0.0
2017-Oct-10 07:29N 53°33' E 008°34'0 0.0
2017-Oct-10 06:59N 53°33' E 008°34'0 0.0
2017-Oct-10 06:29N 53°33' E 008°34'0 0.0
2017-Oct-10 05:56N 53°33' E 008°34'0 0.0
2017-Oct-10 05:29N 53°33' E 008°34'0 0.0
2017-Oct-10 04:59N 53°33' E 008°34'0 0.0
2017-Oct-10 04:29N 53°33' E 008°34'0 0.0
2017-Oct-10 03:59N 53°33' E 008°34'0 0.0
2017-Oct-10 03:29N 53°33' E 008°34'0 0.0
2017-Oct-10 02:59N 53°33' E 008°34'0 0.0
2017-Oct-10 02:29N 53°33' E 008°34'0 0.0
2017-Oct-10 01:59N 53°33' E 008°34'0 0.0
2017-Oct-10 01:29N 53°33' E 008°34'0 0.0
2017-Oct-10 00:59N 53°33' E 008°34'0 0.0
2017-Oct-10 00:29N 53°33' E 008°34'0 0.0
2017-Oct-09 23:59N 53°33' E 008°34'0 0.0
2017-Oct-09 23:29N 53°33' E 008°34'0 0.0
2017-Oct-09 22:59N 53°33' E 008°34'0 0.0
2017-Oct-09 22:29N 53°33' E 008°34'0 0.0
2017-Oct-09 21:59N 53°33' E 008°34'0 0.0
2017-Oct-09 21:29N 53°33' E 008°34'0 0.0
2017-Oct-09 20:59N 53°33' E 008°34'0 0.0
2017-Oct-09 20:29N 53°33' E 008°34'0 0.0
2017-Oct-09 19:59N 53°33' E 008°34'0 0.0
2017-Oct-09 19:29N 53°33' E 008°34'0 0.0
2017-Oct-09 18:59N 53°33' E 008°34'0 0.0
2017-Oct-09 18:29N 53°33' E 008°34'0 0.0
2017-Oct-09 17:59N 53°33' E 008°34'0 0.0
2017-Oct-09 17:29N 53°33' E 008°34'0 0.0
2017-Oct-09 16:59N 53°33' E 008°34'0 0.0
2017-Oct-09 16:29N 53°33' E 008°34'  

Dump ship's entire track history